sensor_id;sensor_type;location;lat;lon;timestamp;pressure;altitude;pressure_sealevel;temperature;humidity
21504;BME280;10913;51.992;9.228;2023-08-17T00:01:38;100594.09;;;20.63;100.00
21504;BME280;10913;51.992;9.228;2023-08-17T00:04:04;100594.97;;;20.64;100.00
21504;BME280;10913;51.992;9.228;2023-08-17T00:06:29;100583.41;;;20.62;100.00
21504;BME280;10913;51.992;9.228;2023-08-17T00:08:55;100588.78;;;20.62;100.00
21504;BME280;10913;51.992;9.228;2023-08-17T00:11:20;100578.19;;;20.59;100.00
21504;BME280;10913;51.992;9.228;2023-08-17T00:13:46;100574.72;;;20.57;100.00
21504;BME280;10913;51.992;9.228;2023-08-17T00:16:11;100581.97;;;20.55;100.00
21504;BME280;10913;51.992;9.228;2023-08-17T00:18:36;100582.91;;;20.54;100.00
21504;BME280;10913;51.992;9.228;2023-08-17T00:21:02;100589.19;;;20.53;100.00
21504;BME280;10913;51.992;9.228;2023-08-17T00:23:29;100581.22;;;20.51;100.00
21504;BME280;10913;51.992;9.228;2023-08-17T00:25:54;100580.34;;;20.51;100.00
21504;BME280;10913;51.992;9.228;2023-08-17T00:28:19;100584.84;;;20.50;100.00
21504;BME280;10913;51.992;9.228;2023-08-17T00:30:45;100579.53;;;20.49;100.00
21504;BME280;10913;51.992;9.228;2023-08-17T00:33:10;100580.53;;;20.46;100.00
21504;BME280;10913;51.992;9.228;2023-08-17T00:35:35;100580.59;;;20.45;100.00
21504;BME280;10913;51.992;9.228;2023-08-17T00:38:01;100569.03;;;20.43;100.00
21504;BME280;10913;51.992;9.228;2023-08-17T00:40:26;100570.00;;;20.42;100.00
21504;BME280;10913;51.992;9.228;2023-08-17T00:42:51;100568.25;;;20.41;100.00
21504;BME280;10913;51.992;9.228;2023-08-17T00:45:18;100572.72;;;20.40;100.00
21504;BME280;10913;51.992;9.228;2023-08-17T00:47:43;100570.13;;;20.39;100.00
21504;BME280;10913;51.992;9.228;2023-08-17T00:50:10;100567.56;;;20.36;100.00
21504;BME280;10913;51.992;9.228;2023-08-17T00:52:37;100573.84;;;20.35;100.00
21504;BME280;10913;51.992;9.228;2023-08-17T00:55:03;100566.75;;;20.34;100.00
21504;BME280;10913;51.992;9.228;2023-08-17T00:57:30;100572.13;;;20.34;100.00
21504;BME280;10913;51.992;9.228;2023-08-17T00:59:57;100572.16;;;20.32;100.00
21504;BME280;10913;51.992;9.228;2023-08-17T01:02:22;100569.63;;;20.29;100.00
21504;BME280;10913;51.992;9.228;2023-08-17T01:04:48;100571.41;;;20.28;100.00
21504;BME280;10913;51.992;9.228;2023-08-17T01:07:13;100572.38;;;20.27;100.00
21504;BME280;10913;51.992;9.228;2023-08-17T01:09:39;100572.47;;;20.24;100.00
21504;BME280;10913;51.992;9.228;2023-08-17T01:12:31;100576.97;;;20.24;100.00
21504;BME280;10913;51.992;9.228;2023-08-17T01:17:44;100548.47;;;20.21;100.00
21504;BME280;10913;51.992;9.228;2023-08-17T01:20:13;100535.16;;;20.18;100.00
21504;BME280;10913;51.992;9.228;2023-08-17T01:22:45;100528.34;;;20.11;100.00
21504;BME280;10913;51.992;9.228;2023-08-17T01:25:11;100535.75;;;20.05;100.00
21504;BME280;10913;51.992;9.228;2023-08-17T01:27:45;100545.22;;;19.93;100.00
21504;BME280;10913;51.992;9.228;2023-08-17T01:30:13;100545.56;;;19.84;100.00
21504;BME280;10913;51.992;9.228;2023-08-17T01:33:08;100534.09;;;19.80;100.00
21504;BME280;10913;51.992;9.228;2023-08-17T01:35:46;100533.38;;;19.77;100.00
21504;BME280;10913;51.992;9.228;2023-08-17T01:38:17;100531.75;;;19.73;100.00
21504;BME280;10913;51.992;9.228;2023-08-17T01:40:45;100533.59;;;19.71;100.00
21504;BME280;10913;51.992;9.228;2023-08-17T01:43:11;100534.66;;;19.67;100.00
21504;BME280;10913;51.992;9.228;2023-08-17T01:45:37;100532.09;;;19.64;100.00
21504;BME280;10913;51.992;9.228;2023-08-17T01:48:02;100548.28;;;19.60;100.00
21504;BME280;10913;51.992;9.228;2023-08-17T01:50:28;100556.72;;;19.51;100.00
21504;BME280;10913;51.992;9.228;2023-08-17T01:52:53;100564.19;;;19.42;100.00
21504;BME280;10913;51.992;9.228;2023-08-17T01:55:21;100564.41;;;19.37;100.00
21504;BME280;10913;51.992;9.228;2023-08-17T01:57:46;100561.72;;;19.37;100.00
21504;BME280;10913;51.992;9.228;2023-08-17T02:00:12;100556.34;;;19.37;100.00
21504;BME280;10913;51.992;9.228;2023-08-17T02:02:38;100557.09;;;19.41;100.00
21504;BME280;10913;51.992;9.228;2023-08-17T02:05:04;100557.84;;;19.44;100.00
21504;BME280;10913;51.992;9.228;2023-08-17T02:07:29;100549.75;;;19.46;100.00
21504;BME280;10913;51.992;9.228;2023-08-17T02:09:54;100554.13;;;19.48;100.00
21504;BME280;10913;51.992;9.228;2023-08-17T02:12:20;100553.31;;;19.46;100.00
21504;BME280;10913;51.992;9.228;2023-08-17T02:14:45;100544.38;;;19.46;100.00
21504;BME280;10913;51.992;9.228;2023-08-17T02:17:10;100544.38;;;19.46;100.00
21504;BME280;10913;51.992;9.228;2023-08-17T02:19:36;100545.16;;;19.49;100.00
21504;BME280;10913;51.992;9.228;2023-08-17T02:22:02;100546.81;;;19.53;100.00
21504;BME280;10913;51.992;9.228;2023-08-17T02:24:27;100545.06;;;19.52;100.00
21504;BME280;10913;51.992;9.228;2023-08-17T02:26:52;100544.06;;;19.55;100.00
21504;BME280;10913;51.992;9.228;2023-08-17T02:29:18;100539.44;;;19.58;100.00
21504;BME280;10913;51.992;9.228;2023-08-17T02:31:43;100541.19;;;19.59;100.00
21504;BME280;10913;51.992;9.228;2023-08-17T02:34:08;100541.94;;;19.63;100.00
21504;BME280;10913;51.992;9.228;2023-08-17T02:36:34;100538.31;;;19.64;100.00
21504;BME280;10913;51.992;9.228;2023-08-17T02:39:00;100534.72;;;19.65;100.00
21504;BME280;10913;51.992;9.228;2023-08-17T02:41:25;100531.09;;;19.66;100.00
21504;BME280;10913;51.992;9.228;2023-08-17T02:43:51;100525.75;;;19.66;100.00
21504;BME280;10913;51.992;9.228;2023-08-17T02:46:16;100523.00;;;19.68;100.00
21504;BME280;10913;51.992;9.228;2023-08-17T02:48:41;100521.25;;;19.67;100.00
21504;BME280;10913;51.992;9.228;2023-08-17T02:51:07;100522.06;;;19.69;100.00
21504;BME280;10913;51.992;9.228;2023-08-17T02:53:32;100525.63;;;19.69;100.00
21504;BME280;10913;51.992;9.228;2023-08-17T02:55:57;100524.75;;;19.69;100.00
21504;BME280;10913;51.992;9.228;2023-08-17T02:58:23;100526.72;;;19.64;100.00
21504;BME280;10913;51.992;9.228;2023-08-17T03:00:51;100537.84;;;19.54;100.00
21504;BME280;10913;51.992;9.228;2023-08-17T03:03:17;100540.03;;;19.43;100.00
21504;BME280;10913;51.992;9.228;2023-08-17T03:05:42;100531.44;;;19.35;100.00
21504;BME280;10913;51.992;9.228;2023-08-17T03:08:08;100536.03;;;19.32;100.00
21504;BME280;10913;51.992;9.228;2023-08-17T03:10:33;100533.53;;;19.27;100.00
21504;BME280;10913;51.992;9.228;2023-08-17T03:12:59;100541.78;;;19.21;100.00
21504;BME280;10913;51.992;9.228;2023-08-17T03:15:24;100548.06;;;19.20;100.00
21504;BME280;10913;51.992;9.228;2023-08-17T03:17:49;100541.66;;;19.24;100.00
21504;BME280;10913;51.992;9.228;2023-08-17T03:20:15;100531.78;;;19.26;100.00
21504;BME280;10913;51.992;9.228;2023-08-17T03:22:40;100537.84;;;19.31;100.00
21504;BME280;10913;51.992;9.228;2023-08-17T03:25:06;100530.56;;;19.35;100.00
21504;BME280;10913;51.992;9.228;2023-08-17T03:27:31;100531.31;;;19.38;100.00
21504;BME280;10913;51.992;9.228;2023-08-17T03:29:57;100526.69;;;19.42;100.00
21504;BME280;10913;51.992;9.228;2023-08-17T03:32:22;100528.31;;;19.46;100.00
21504;BME280;10913;51.992;9.228;2023-08-17T03:34:48;100516.59;;;19.48;100.00
21504;BME280;10913;51.992;9.228;2023-08-17T03:37:13;100517.44;;;19.50;100.00
21504;BME280;10913;51.992;9.228;2023-08-17T03:39:38;100515.66;;;19.51;100.00
21504;BME280;10913;51.992;9.228;2023-08-17T03:42:04;100516.53;;;19.51;100.00
21504;BME280;10913;51.992;9.228;2023-08-17T03:44:29;100519.13;;;19.53;100.00
21504;BME280;10913;51.992;9.228;2023-08-17T03:46:54;100520.06;;;19.52;100.00
21504;BME280;10913;51.992;9.228;2023-08-17T03:49:20;100516.53;;;19.51;100.00
21504;BME280;10913;51.992;9.228;2023-08-17T03:51:45;100514.78;;;19.50;100.00
21504;BME280;10913;51.992;9.228;2023-08-17T03:54:12;100522.81;;;19.50;100.00
21504;BME280;10913;51.992;9.228;2023-08-17T03:56:37;100521.00;;;19.51;100.00
21504;BME280;10913;51.992;9.228;2023-08-17T03:59:03;100523.63;;;19.52;100.00
21504;BME280;10913;51.992;9.228;2023-08-17T04:01:29;100527.19;;;19.53;100.00
21504;BME280;10913;51.992;9.228;2023-08-17T04:03:54;100528.88;;;19.55;100.00
21504;BME280;10913;51.992;9.228;2023-08-17T04:06:20;100534.22;;;19.55;100.00
21504;BME280;10913;51.992;9.228;2023-08-17T04:08:45;100537.84;;;19.54;100.00
21504;BME280;10913;51.992;9.228;2023-08-17T04:11:11;100541.41;;;19.55;100.00
21504;BME280;10913;51.992;9.228;2023-08-17T04:13:36;100538.78;;;19.53;100.00
21504;BME280;10913;51.992;9.228;2023-08-17T04:16:02;100540.53;;;19.54;100.00
21504;BME280;10913;51.992;9.228;2023-08-17T04:18:27;100536.91;;;19.55;100.00
21504;BME280;10913;51.992;9.228;2023-08-17T04:20:52;100542.22;;;19.57;100.00
21504;BME280;10913;51.992;9.228;2023-08-17T04:23:18;100536.91;;;19.55;100.00
21504;BME280;10913;51.992;9.228;2023-08-17T04:25:43;100541.44;;;19.53;100.00
21504;BME280;10913;51.992;9.228;2023-08-17T04:28:11;100541.41;;;19.55;100.00
21504;BME280;10913;51.992;9.228;2023-08-17T04:30:37;100531.59;;;19.54;100.00
21504;BME280;10913;51.992;9.228;2023-08-17T04:33:03;100536.09;;;19.53;100.00
21504;BME280;10913;51.992;9.228;2023-08-17T04:35:28;100530.72;;;19.53;100.00
21504;BME280;10913;51.992;9.228;2023-08-17T04:37:54;100526.31;;;19.52;100.00
21504;BME280;10913;51.992;9.228;2023-08-17T04:40:19;100529.84;;;19.53;100.00
21504;BME280;10913;51.992;9.228;2023-08-17T04:42:45;100523.63;;;19.52;100.00
21504;BME280;10913;51.992;9.228;2023-08-17T04:45:10;100525.44;;;19.52;100.00
21504;BME280;10913;51.992;9.228;2023-08-17T04:47:35;100533.53;;;19.50;100.00
21504;BME280;10913;51.992;9.228;2023-08-17T04:50:01;100524.63;;;19.48;100.00
21504;BME280;10913;51.992;9.228;2023-08-17T04:52:26;100522.88;;;19.47;100.00
21504;BME280;10913;51.992;9.228;2023-08-17T04:54:51;100522.06;;;19.45;100.00
21504;BME280;10913;51.992;9.228;2023-08-17T04:57:17;100529.19;;;19.46;100.00
21504;BME280;10913;51.992;9.228;2023-08-17T04:59:44;100534.53;;;19.46;100.00
21504;BME280;10913;51.992;9.228;2023-08-17T05:02:09;100527.31;;;19.48;100.00
21504;BME280;10913;51.992;9.228;2023-08-17T05:04:35;100531.72;;;19.51;100.00
21504;BME280;10913;51.992;9.228;2023-08-17T05:07:01;100535.22;;;19.53;100.00
21504;BME280;10913;51.992;9.228;2023-08-17T05:09:26;100540.53;;;19.54;100.00
21504;BME280;10913;51.992;9.228;2023-08-17T05:11:52;100538.66;;;19.56;100.00
21504;BME280;10913;51.992;9.228;2023-08-17T05:14:18;100553.72;;;19.59;100.00
21504;BME280;10913;51.992;9.228;2023-08-17T05:16:43;100548.44;;;19.57;100.00
21504;BME280;10913;51.992;9.228;2023-08-17T05:19:08;100542.13;;;19.58;100.00
21504;BME280;10913;51.992;9.228;2023-08-17T05:21:34;100536.84;;;19.57;100.00
21504;BME280;10913;51.992;9.228;2023-08-17T05:24:00;100536.84;;;19.57;100.00
21504;BME280;10913;51.992;9.228;2023-08-17T05:26:25;100535.97;;;19.56;100.00
21504;BME280;10913;51.992;9.228;2023-08-17T05:28:51;100538.66;;;19.56;100.00
21504;BME280;10913;51.992;9.228;2023-08-17T05:31:16;100544.94;;;19.55;100.00
21504;BME280;10913;51.992;9.228;2023-08-17T05:33:41;100539.72;;;19.52;100.00
21504;BME280;10913;51.992;9.228;2023-08-17T05:36:07;100542.44;;;19.51;100.00
21504;BME280;10913;51.992;9.228;2023-08-17T05:38:33;100549.63;;;19.49;100.00
21504;BME280;10913;51.992;9.228;2023-08-17T05:40:59;100548.75;;;19.48;100.00
21504;BME280;10913;51.992;9.228;2023-08-17T05:43:25;100543.50;;;19.45;100.00
21504;BME280;10913;51.992;9.228;2023-08-17T05:45:51;100548.06;;;19.43;100.00
21504;BME280;10913;51.992;9.228;2023-08-17T05:48:18;100557.97;;;19.41;100.00
21504;BME280;10913;51.992;9.228;2023-08-17T05:50:44;100565.06;;;19.42;100.00
21504;BME280;10913;51.992;9.228;2023-08-17T05:53:09;100557.97;;;19.41;100.00
21504;BME280;10913;51.992;9.228;2023-08-17T05:55:35;100557.97;;;19.41;100.00
21504;BME280;10913;51.992;9.228;2023-08-17T05:58:00;100553.47;;;19.42;100.00
21504;BME280;10913;51.992;9.228;2023-08-17T06:00:25;100548.94;;;19.44;100.00
21504;BME280;10913;51.992;9.228;2023-08-17T06:02:51;100554.22;;;19.45;100.00
21504;BME280;10913;51.992;9.228;2023-08-17T06:05:19;100552.38;;;19.47;100.00
21504;BME280;10913;51.992;9.228;2023-08-17T06:07:50;100548.75;;;19.48;100.00
21504;BME280;10913;51.992;9.228;2023-08-17T06:10:15;100555.78;;;19.52;100.00
21504;BME280;10913;51.992;9.228;2023-08-17T06:12:41;100539.59;;;19.55;100.00
21504;BME280;10913;51.992;9.228;2023-08-17T06:15:06;100540.47;;;19.56;100.00
21504;BME280;10913;51.992;9.228;2023-08-17T06:17:32;100545.81;;;19.56;100.00
21504;BME280;10913;51.992;9.228;2023-08-17T06:19:57;100544.00;;;19.56;100.00
21504;BME280;10913;51.992;9.228;2023-08-17T06:22:22;100542.13;;;19.58;100.00
21504;BME280;10913;51.992;9.228;2023-08-17T06:24:48;100547.38;;;19.61;100.00
21504;BME280;10913;51.992;9.228;2023-08-17T06:27:14;100548.19;;;19.64;100.00
21504;BME280;10913;51.992;9.228;2023-08-17T06:29:40;100551.69;;;19.66;100.00
21504;BME280;10913;51.992;9.228;2023-08-17T06:32:07;100559.59;;;19.69;100.00
21504;BME280;10913;51.992;9.228;2023-08-17T06:34:33;100556.81;;;19.72;100.00
21504;BME280;10913;51.992;9.228;2023-08-17T06:37:01;100562.03;;;19.75;100.00
21504;BME280;10913;51.992;9.228;2023-08-17T06:39:27;100570.03;;;19.76;100.00
21504;BME280;10913;51.992;9.228;2023-08-17T06:41:52;100565.53;;;19.77;100.00
21504;BME280;10913;51.992;9.228;2023-08-17T06:44:18;100567.34;;;19.76;100.00
21504;BME280;10913;51.992;9.228;2023-08-17T06:46:43;100567.47;;;19.73;100.00
21504;BME280;10913;51.992;9.228;2023-08-17T06:49:09;100566.59;;;19.73;100.00
21504;BME280;10913;51.992;9.228;2023-08-17T06:51:34;100569.38;;;19.70;100.00
21504;BME280;10913;51.992;9.228;2023-08-17T06:53:59;100568.56;;;19.68;100.00
21504;BME280;10913;51.992;9.228;2023-08-17T06:56:25;100573.13;;;19.66;100.00
21504;BME280;10913;51.992;9.228;2023-08-17T06:58:50;100566.06;;;19.63;100.00
21504;BME280;10913;51.992;9.228;2023-08-17T07:01:16;100572.31;;;19.64;100.00
21504;BME280;10913;51.992;9.228;2023-08-17T07:03:41;100569.69;;;19.62;100.00
21504;BME280;10913;51.992;9.228;2023-08-17T07:06:07;100564.38;;;19.60;100.00
21504;BME280;10913;51.992;9.228;2023-08-17T07:08:33;100560.72;;;19.63;100.00
21504;BME280;10913;51.992;9.228;2023-08-17T07:10:58;100564.16;;;19.67;100.00
21504;BME280;10913;51.992;9.228;2023-08-17T07:13:23;100557.78;;;19.69;100.00
21504;BME280;10913;51.992;9.228;2023-08-17T07:15:49;100563.91;;;19.73;100.00
21504;BME280;10913;51.992;9.228;2023-08-17T07:18:14;100559.31;;;19.76;100.00
21504;BME280;10913;51.992;9.228;2023-08-17T07:20:40;100561.78;;;19.81;100.00
21504;BME280;10913;51.992;9.228;2023-08-17T07:23:05;100560.72;;;19.85;100.00
21504;BME280;10913;51.992;9.228;2023-08-17T07:25:30;100559.78;;;19.86;100.00
21504;BME280;10913;51.992;9.228;2023-08-17T07:27:56;100560.66;;;19.86;100.00
21504;BME280;10913;51.992;9.228;2023-08-17T07:30:21;100569.47;;;19.90;100.00
21504;BME280;10913;51.992;9.228;2023-08-17T07:32:47;100578.31;;;19.92;100.00
21504;BME280;10913;51.992;9.228;2023-08-17T07:35:12;100575.63;;;19.92;100.00
21504;BME280;10913;51.992;9.228;2023-08-17T07:37:37;100579.13;;;19.94;100.00
21504;BME280;10913;51.992;9.228;2023-08-17T07:40:03;100588.81;;;19.98;100.00
21504;BME280;10913;51.992;9.228;2023-08-17T07:42:29;100589.75;;;19.97;100.00
21504;BME280;10913;51.992;9.228;2023-08-17T07:44:54;100593.34;;;19.96;100.00
21504;BME280;10913;51.992;9.228;2023-08-17T07:47:20;100596.97;;;19.95;100.00
21504;BME280;10913;51.992;9.228;2023-08-17T07:49:45;100593.34;;;19.96;100.00
21504;BME280;10913;51.992;9.228;2023-08-17T07:52:10;100589.00;;;19.93;100.00
21504;BME280;10913;51.992;9.228;2023-08-17T07:54:36;100596.09;;;19.94;100.00
21504;BME280;10913;51.992;9.228;2023-08-17T07:57:01;100593.34;;;19.96;100.00
21504;BME280;10913;51.992;9.228;2023-08-17T07:59:28;100596.84;;;19.98;100.00
21504;BME280;10913;51.992;9.228;2023-08-17T08:01:54;100599.38;;;20.01;100.00
21504;BME280;10913;51.992;9.228;2023-08-17T08:04:19;100593.97;;;20.03;100.00
21504;BME280;10913;51.992;9.228;2023-08-17T08:06:45;100591.22;;;20.04;100.00
21504;BME280;10913;51.992;9.228;2023-08-17T08:09:10;100593.91;;;20.04;100.00
21504;BME280;10913;51.992;9.228;2023-08-17T08:11:36;100597.53;;;20.03;100.00
21504;BME280;10913;51.992;9.228;2023-08-17T08:14:01;100597.56;;;20.02;100.00
21504;BME280;10913;51.992;9.228;2023-08-17T08:16:27;100590.41;;;20.02;100.00
21504;BME280;10913;51.992;9.228;2023-08-17T08:18:55;100587.78;;;20.01;100.00
21504;BME280;10913;51.992;9.228;2023-08-17T08:21:20;100594.94;;;20.00;100.00
21504;BME280;10913;51.992;9.228;2023-08-17T08:23:46;100597.63;;;20.00;100.00
21504;BME280;10913;51.992;9.228;2023-08-17T08:26:11;100596.69;;;20.01;100.00
21504;BME280;10913;51.992;9.228;2023-08-17T08:28:37;100600.19;;;20.03;100.00
21504;BME280;10913;51.992;9.228;2023-08-17T08:31:02;100594.72;;;20.06;100.00
21504;BME280;10913;51.992;9.228;2023-08-17T08:33:31;100594.59;;;20.09;100.00
21504;BME280;10913;51.992;9.228;2023-08-17T08:35:56;100594.59;;;20.09;100.00
21504;BME280;10913;51.992;9.228;2023-08-17T08:38:22;100602.69;;;20.08;100.00
21504;BME280;10913;51.992;9.228;2023-08-17T08:40:47;100594.84;;;20.03;100.00
21504;BME280;10913;51.992;9.228;2023-08-17T08:43:16;100595.72;;;20.04;100.00
21504;BME280;10913;51.992;9.228;2023-08-17T08:45:42;100597.34;;;20.08;100.00
21504;BME280;10913;51.992;9.228;2023-08-17T08:48:11;100593.66;;;20.10;100.00
21504;BME280;10913;51.992;9.228;2023-08-17T08:50:39;100595.22;;;20.16;100.00
21504;BME280;10913;51.992;9.228;2023-08-17T08:53:11;100590.56;;;20.19;100.00
21504;BME280;10913;51.992;9.228;2023-08-17T08:55:44;100586.84;;;20.23;100.00
21504;BME280;10913;51.992;9.228;2023-08-17T08:58:10;100577.72;;;20.27;100.00
21504;BME280;10913;51.992;9.228;2023-08-17T09:00:37;100576.72;;;20.30;100.00
21504;BME280;10913;51.992;9.228;2023-08-17T09:03:04;100574.72;;;20.35;100.00
21504;BME280;10913;51.992;9.228;2023-08-17T09:05:31;100580.00;;;20.38;100.00
21504;BME280;10913;51.992;9.228;2023-08-17T09:08:00;100578.97;;;20.41;100.00
21504;BME280;10913;51.992;9.228;2023-08-17T09:10:26;100577.09;;;20.43;100.00
21504;BME280;10913;51.992;9.228;2023-08-17T09:12:51;100572.53;;;20.45;100.00
21504;BME280;10913;51.992;9.228;2023-08-17T09:15:17;100575.09;;;20.48;100.00
21504;BME280;10913;51.992;9.228;2023-08-17T09:17:43;100574.97;;;20.51;100.00
21504;BME280;10913;51.992;9.228;2023-08-17T09:20:09;100569.59;;;20.51;100.00
21504;BME280;10913;51.992;9.228;2023-08-17T09:22:42;100572.97;;;20.56;100.00
21504;BME280;10913;51.992;9.228;2023-08-17T09:25:11;100576.47;;;20.58;100.00
21504;BME280;10913;51.992;9.228;2023-08-17T09:27:46;100572.69;;;20.62;100.00
21504;BME280;10913;51.992;9.228;2023-08-17T09:30:12;100571.69;;;20.64;100.00
21504;BME280;10913;51.992;9.228;2023-08-17T09:32:37;100571.56;;;20.68;100.00
21504;BME280;10913;51.992;9.228;2023-08-17T09:35:04;100575.09;;;20.68;100.00
21504;BME280;10913;51.992;9.228;2023-08-17T09:37:33;100575.91;;;20.70;100.00
21504;BME280;10913;51.992;9.228;2023-08-17T09:39:59;100583.91;;;20.72;100.00
21504;BME280;10913;51.992;9.228;2023-08-17T09:42:25;100586.53;;;20.73;100.00
21504;BME280;10913;51.992;9.228;2023-08-17T09:44:51;100586.41;;;20.76;100.00
21504;BME280;10913;51.992;9.228;2023-08-17T09:47:17;100577.41;;;20.77;100.00
21504;BME280;10913;51.992;9.228;2023-08-17T09:49:48;100576.53;;;20.77;100.00
21504;BME280;10913;51.992;9.228;2023-08-17T09:52:13;100579.28;;;20.75;100.00
21504;BME280;10913;51.992;9.228;2023-08-17T09:54:39;100577.41;;;20.77;100.00
21504;BME280;10913;51.992;9.228;2023-08-17T09:57:05;100578.19;;;20.79;100.00
21504;BME280;10913;51.992;9.228;2023-08-17T09:59:31;100575.44;;;20.81;100.00
21504;BME280;10913;51.992;9.228;2023-08-17T10:01:58;100569.06;;;20.83;100.00
21504;BME280;10913;51.992;9.228;2023-08-17T10:04:25;100571.59;;;20.86;100.00
21504;BME280;10913;51.992;9.228;2023-08-17T10:06:58;100568.78;;;20.89;100.00
21504;BME280;10913;51.992;9.228;2023-08-17T10:09:29;100573.22;;;20.90;100.00
21504;BME280;10913;51.992;9.228;2023-08-17T10:11:57;100567.84;;;20.90;100.00
21504;BME280;10913;51.992;9.228;2023-08-17T10:14:36;100568.66;;;20.92;100.00
21504;BME280;10913;51.992;9.228;2023-08-17T10:17:08;100558.72;;;20.94;100.00
21504;BME280;10913;51.992;9.228;2023-08-17T10:19:49;100560.47;;;20.95;100.00
21504;BME280;10913;51.992;9.228;2023-08-17T10:25:11;100553.22;;;20.97;100.00
21504;BME280;10913;51.992;9.228;2023-08-17T10:27:37;100554.91;;;20.98;100.00
21504;BME280;10913;51.992;9.228;2023-08-17T10:30:03;100555.78;;;20.99;100.00
21504;BME280;10913;51.992;9.228;2023-08-17T10:32:29;100572.72;;;21.01;100.00
21504;BME280;10913;51.992;9.228;2023-08-17T10:34:55;100570.91;;;21.02;100.00
21504;BME280;10913;51.992;9.228;2023-08-17T10:37:21;100567.22;;;21.04;100.00
21504;BME280;10913;51.992;9.228;2023-08-17T10:39:49;100562.78;;;21.03;100.00
21504;BME280;10913;51.992;9.228;2023-08-17T10:42:15;100569.03;;;21.04;100.00
21504;BME280;10913;51.992;9.228;2023-08-17T10:44:54;100560.16;;;21.02;100.00
21504;BME280;10913;51.992;9.228;2023-08-17T10:50:19;100567.16;;;21.06;100.00
21504;BME280;10913;51.992;9.228;2023-08-17T10:52:48;100572.38;;;21.09;100.00
21504;BME280;10913;51.992;9.228;2023-08-17T10:55:13;100573.13;;;21.12;100.00
21504;BME280;10913;51.992;9.228;2023-08-17T10:57:43;100579.22;;;21.16;100.00
21504;BME280;10913;51.992;9.228;2023-08-17T11:00:23;100572.81;;;21.18;100.00
21504;BME280;10913;51.992;9.228;2023-08-17T11:02:52;100570.22;;;21.17;100.00
21504;BME280;10913;51.992;9.228;2023-08-17T11:05:42;100575.59;;;21.17;100.00
21504;BME280;10913;51.992;9.228;2023-08-17T11:10:48;100582.88;;;21.15;100.00
21504;BME280;10913;51.992;9.228;2023-08-17T11:13:22;100578.50;;;21.12;100.00
21504;BME280;10913;51.992;9.228;2023-08-17T11:15:48;100589.25;;;21.12;100.00
21504;BME280;10913;51.992;9.228;2023-08-17T11:18:14;100591.13;;;21.10;100.00
21504;BME280;10913;51.992;9.228;2023-08-17T11:20:41;100595.63;;;21.10;100.00
21504;BME280;10913;51.992;9.228;2023-08-17T11:23:08;100584.00;;;21.09;100.00
21504;BME280;10913;51.992;9.228;2023-08-17T11:25:33;100592.88;;;21.11;100.00
21504;BME280;10913;51.992;9.228;2023-08-17T11:28:00;100601.81;;;21.12;100.00
21504;BME280;10913;51.992;9.228;2023-08-17T11:30:27;100594.63;;;21.12;100.00
21504;BME280;10913;51.992;9.228;2023-08-17T11:32:53;100598.97;;;21.15;100.00
21504;BME280;10913;51.992;9.228;2023-08-17T11:35:20;100598.03;;;21.16;100.00
21504;BME280;10913;51.992;9.228;2023-08-17T11:37:46;100602.47;;;21.17;100.00
21504;BME280;10913;51.992;9.228;2023-08-17T11:40:14;100604.13;;;21.19;100.00
21504;BME280;10913;51.992;9.228;2023-08-17T11:42:39;100600.56;;;21.19;100.00
21504;BME280;10913;51.992;9.228;2023-08-17T11:45:05;100602.34;;;21.20;100.00
21504;BME280;10913;51.992;9.228;2023-08-17T11:47:32;100600.56;;;21.19;100.00
21504;BME280;10913;51.992;9.228;2023-08-17T11:50:04;100605.94;;;21.19;100.00
21504;BME280;10913;51.992;9.228;2023-08-17T11:52:31;100602.47;;;21.17;100.00
21504;BME280;10913;51.992;9.228;2023-08-17T11:55:00;100601.00;;;21.10;100.00
21504;BME280;10913;51.992;9.228;2023-08-17T11:57:26;100611.75;;;21.10;100.00
21504;BME280;10913;51.992;9.228;2023-08-17T11:59:55;100605.56;;;21.08;100.00
21504;BME280;10913;51.992;9.228;2023-08-17T12:02:23;100601.06;;;21.08;100.00
21504;BME280;10913;51.992;9.228;2023-08-17T12:04:48;100591.25;;;21.07;100.00
21504;BME280;10913;51.992;9.228;2023-08-17T12:07:15;100603.75;;;21.08;100.00
21504;BME280;10913;51.992;9.228;2023-08-17T12:09:42;100597.50;;;21.08;100.00
21504;BME280;10913;51.992;9.228;2023-08-17T12:12:08;100598.38;;;21.08;100.00
21504;BME280;10913;51.992;9.228;2023-08-17T12:14:34;100591.19;;;21.09;100.00
21504;BME280;10913;51.992;9.228;2023-08-17T12:16:59;100597.44;;;21.09;100.00
21504;BME280;10913;51.992;9.228;2023-08-17T12:19:25;100587.63;;;21.08;100.00
21504;BME280;10913;51.992;9.228;2023-08-17T12:21:51;100583.13;;;21.09;100.00
21504;BME280;10913;51.992;9.228;2023-08-17T12:24:16;100589.38;;;21.09;100.00
21504;BME280;10913;51.992;9.228;2023-08-17T12:26:45;100595.63;;;21.10;100.00
21504;BME280;10913;51.992;9.228;2023-08-17T12:29:11;100595.63;;;21.10;100.00
21504;BME280;10913;51.992;9.228;2023-08-17T12:31:36;100595.63;;;21.10;100.00
21504;BME280;10913;51.992;9.228;2023-08-17T12:34:02;100593.88;;;21.09;100.00
21504;BME280;10913;51.992;9.228;2023-08-17T12:36:28;100592.25;;;21.05;100.00
21504;BME280;10913;51.992;9.228;2023-08-17T12:38:54;100598.50;;;21.05;100.00
21504;BME280;10913;51.992;9.228;2023-08-17T12:41:20;100597.63;;;21.05;100.00
21504;BME280;10913;51.992;9.228;2023-08-17T12:43:45;100597.84;;;21.00;100.00
21504;BME280;10913;51.992;9.228;2023-08-17T12:46:10;100596.97;;;20.99;100.00
21504;BME280;10913;51.992;9.228;2023-08-17T12:48:36;100596.09;;;20.99;100.00